createdAt,value
2018-06-15T00:01:11.493Z,23.53
2018-06-15T00:03:20.898Z,23.35
2018-06-15T00:05:27.250Z,23.34
2018-06-15T00:07:32.730Z,23.14
2018-06-15T00:09:38.239Z,22.95
2018-06-15T00:11:43.739Z,23.40
2018-06-15T00:13:49.025Z,22.92
2018-06-15T00:15:55.028Z,22.83
2018-06-15T00:18:00.246Z,23.02
2018-06-15T00:20:05.928Z,23.73
2018-06-15T00:22:22.501Z,23.78
2018-06-15T00:24:28.007Z,23.84
2018-06-15T00:26:33.742Z,23.57
2018-06-15T00:28:39.602Z,23.37
2018-06-15T00:30:44.631Z,23.67
2018-06-15T00:32:50.176Z,22.79
2018-06-15T00:34:55.481Z,23.42
2018-06-15T00:37:00.980Z,23.55
2018-06-15T00:39:10.723Z,23.51
2018-06-15T00:41:20.084Z,23.78
2018-06-15T00:43:26.219Z,23.72
2018-06-15T00:45:31.962Z,23.95
2018-06-15T00:47:37.190Z,23.71
2018-06-15T00:49:42.585Z,23.67
2018-06-15T00:51:48.096Z,23.48
2018-06-15T00:53:54.129Z,23.73
2018-06-15T00:55:59.691Z,24.04
2018-06-15T00:58:04.995Z,24.06
2018-06-15T01:00:13.392Z,24.11
2018-06-15T01:02:22.449Z,23.83
2018-06-15T01:04:27.992Z,23.82
2018-06-15T01:06:33.322Z,24.00
2018-06-15T01:08:39.411Z,24.14
2018-06-15T01:11:01.169Z,24.15
2018-06-15T01:13:14.601Z,23.87
2018-06-15T01:15:28.568Z,23.73
2018-06-15T01:17:37.551Z,23.75
2018-06-15T01:19:53.354Z,23.73
2018-06-15T01:22:07.004Z,23.31
2018-06-15T01:24:16.826Z,23.29
2018-06-15T01:26:26.468Z,23.44
2018-06-15T01:28:32.423Z,23.41
2018-06-15T01:30:38.655Z,22.81
2018-06-15T01:32:44.124Z,22.63
2018-06-15T01:34:49.879Z,22.33
2018-06-15T01:36:55.693Z,23.17
2018-06-15T01:39:01.434Z,22.48
2018-06-15T01:41:08.523Z,23.06
2018-06-15T01:43:16.827Z,22.96
2018-06-15T01:45:23.907Z,23.43
2018-06-15T01:47:29.515Z,23.36
2018-06-15T01:49:35.206Z,23.36
2018-06-15T01:51:40.991Z,23.31
2018-06-15T01:53:46.510Z,23.37
2018-06-15T01:55:52.129Z,23.04
2018-06-15T01:57:58.083Z,21.95
2018-06-15T02:00:03.686Z,22.63
2018-06-15T02:02:11.530Z,21.47
2018-06-15T02:04:21.688Z,21.41
2018-06-15T02:06:27.282Z,22.81
2018-06-15T02:08:32.726Z,23.14
2018-06-15T02:10:38.838Z,23.05
2018-06-15T02:12:44.598Z,22.96
2018-06-15T02:14:50.472Z,23.37
2018-06-15T02:16:56.351Z,23.56
2018-06-15T02:19:02.278Z,23.10
2018-06-15T02:21:10.637Z,23.55
2018-06-15T02:23:18.800Z,23.59
2018-06-15T02:25:25.538Z,23.36
2018-06-15T02:27:31.179Z,23.60
2018-06-15T02:29:36.915Z,23.63
2018-06-15T02:31:43.014Z,23.88
2018-06-15T02:33:48.722Z,23.93
2018-06-15T02:35:54.177Z,23.91
2018-06-15T02:37:59.930Z,23.94
2018-06-15T02:40:05.074Z,23.82
2018-06-15T02:42:14.341Z,23.86
2018-06-15T02:44:23.774Z,23.81
2018-06-15T02:46:29.012Z,23.93
2018-06-15T02:48:34.822Z,23.72
2018-06-15T02:50:40.766Z,23.38
2018-06-15T02:52:46.455Z,23.70
2018-06-15T02:54:52.415Z,23.52
2018-06-15T02:56:58.551Z,22.41
2018-06-15T02:59:05.373Z,22.79
2018-06-15T03:01:14.806Z,21.93
2018-06-15T03:03:29.721Z,21.56
2018-06-15T03:05:35.584Z,22.32
2018-06-15T03:07:41.187Z,22.82
2018-06-15T03:09:47.261Z,22.79
2018-06-15T03:11:53.329Z,22.65
2018-06-15T03:13:59.046Z,22.60
2018-06-15T03:16:05.347Z,22.32
2018-06-15T03:18:14.207Z,22.68
2018-06-15T03:20:24.034Z,21.85
2018-06-15T03:22:29.225Z,21.58
2018-06-15T03:24:35.001Z,22.01
2018-06-15T03:26:40.726Z,21.21
2018-06-15T03:28:46.678Z,21.17
2018-06-15T03:30:51.849Z,21.97
2018-06-15T03:32:57.370Z,21.47
2018-06-15T03:35:03.496Z,21.74
2018-06-15T03:37:11.655Z,22.38
2018-06-15T03:39:20.576Z,22.46
2018-06-15T03:41:28.742Z,22.61
2018-06-15T03:43:34.846Z,22.31
2018-06-15T03:45:40.862Z,22.08
2018-06-15T03:47:47.321Z,22.36
2018-06-15T03:49:53.158Z,22.71
2018-06-15T03:51:59.979Z,22.56
2018-06-15T03:54:06.527Z,22.61
2018-06-15T03:56:15.571Z,22.10
2018-06-15T03:58:23.842Z,21.80
2018-06-15T04:00:30.066Z,22.16
2018-06-15T04:02:35.769Z,22.20
2018-06-15T04:04:41.636Z,22.39
2018-06-15T04:06:47.923Z,22.84
2018-06-15T04:08:54.178Z,22.83
2018-06-15T04:11:00.099Z,22.84
2018-06-15T04:13:07.661Z,22.34
2018-06-15T04:15:16.308Z,22.73
2018-06-15T04:17:24.187Z,22.89
2018-06-15T04:19:30.090Z,22.86
2018-06-15T04:21:36.372Z,22.27
2018-06-15T04:23:42.546Z,22.16
2018-06-15T04:25:48.203Z,21.94
2018-06-15T04:27:54.781Z,22.77
2018-06-15T04:30:00.898Z,22.54
2018-06-15T04:32:08.761Z,22.50
2018-06-15T04:34:21.319Z,22.17
2018-06-15T04:36:27.389Z,21.95
2018-06-15T04:38:33.383Z,21.95
2018-06-15T04:40:39.140Z,22.35
2018-06-15T04:42:45.303Z,22.66
2018-06-15T04:44:51.246Z,22.09
2018-06-15T04:46:57.434Z,22.65
2018-06-15T04:49:08.150Z,22.34
2018-06-15T04:51:15.937Z,21.91
2018-06-15T04:53:24.902Z,22.53
2018-06-15T04:55:30.074Z,22.73
2018-06-15T04:57:35.290Z,22.53
2018-06-15T04:59:40.730Z,21.95
2018-06-15T05:01:46.354Z,22.73
2018-06-15T05:03:52.113Z,22.58
2018-06-15T05:05:57.915Z,22.63
2018-06-15T05:08:10.063Z,22.72
2018-06-15T05:12:34.632Z,22.88
2018-06-15T05:15:53.070Z,22.40
2018-06-15T05:17:58.650Z,22.44
2018-06-15T05:20:10.145Z,22.24
2018-06-15T05:22:18.044Z,22.53
2018-06-15T05:24:26.454Z,22.69
2018-06-15T05:26:31.935Z,22.62
2018-06-15T05:28:37.398Z,22.91
2018-06-15T05:30:43.782Z,22.93
2018-06-15T05:32:49.386Z,22.82
2018-06-15T05:34:55.878Z,23.37
2018-06-15T05:37:01.105Z,22.71
2018-06-15T05:39:12.513Z,22.43
2018-06-15T05:41:23.937Z,22.91
2018-06-15T05:43:29.291Z,23.29
2018-06-15T05:45:35.207Z,23.41
2018-06-15T05:47:41.158Z,23.41
2018-06-15T05:49:47.659Z,23.67
2018-06-15T05:51:53.308Z,24.00
2018-06-15T05:53:58.815Z,23.58
2018-06-15T05:56:06.510Z,23.01
2018-06-15T05:58:15.471Z,23.39
2018-06-15T06:00:25.068Z,23.98
2018-06-15T06:02:31.471Z,23.40
2018-06-15T06:04:37.755Z,23.93
2018-06-15T06:06:43.731Z,24.04
2018-06-15T06:08:49.578Z,23.92
2018-06-15T06:11:03.232Z,23.23
2018-06-15T06:13:14.728Z,23.87
2018-06-15T06:15:28.516Z,23.81
2018-06-15T06:17:34.085Z,24.22
2018-06-15T06:19:42.427Z,24.36
2018-06-15T06:21:48.424Z,24.25
2018-06-15T06:23:55.845Z,24.20
2018-06-15T06:26:02.241Z,24.23
2018-06-15T06:28:11.555Z,24.24
2018-06-15T06:30:24.339Z,24.35
2018-06-15T06:32:29.980Z,24.09
2018-06-15T06:34:35.308Z,24.20
2018-06-15T06:36:50.368Z,24.42
2018-06-15T06:38:56.946Z,24.65
2018-06-15T06:41:03.022Z,24.77
2018-06-15T06:43:16.857Z,24.46
2018-06-15T06:45:28.425Z,24.32
2018-06-15T06:47:42.250Z,24.70
2018-06-15T06:49:48.749Z,24.75
2018-06-15T06:51:54.878Z,24.96
2018-06-15T06:54:00.733Z,24.98
2018-06-15T06:56:08.028Z,25.18
2018-06-15T06:58:17.200Z,25.20
2018-06-15T07:00:27.672Z,25.16
2018-06-15T07:02:33.974Z,25.21
2018-06-15T07:04:39.519Z,25.20
2018-06-15T07:08:57.078Z,25.00
2018-06-15T07:11:04.092Z,25.28
2018-06-15T07:13:10.768Z,25.31
2018-06-15T07:15:19.298Z,25.12
2018-06-15T07:17:26.306Z,25.21
2018-06-15T07:19:37.510Z,25.25
2018-06-15T07:21:43.034Z,25.28
2018-06-15T07:23:51.138Z,25.18
2018-06-15T07:25:56.482Z,25.29
2018-06-15T07:28:02.434Z,25.51
2018-06-15T07:30:10.479Z,25.52
2018-06-15T07:32:21.334Z,25.29
2018-06-15T07:34:29.934Z,25.77
2018-06-15T07:36:37.125Z,25.97
2018-06-15T07:38:42.675Z,25.98
2018-06-15T07:40:48.402Z,26.05
2018-06-15T07:42:53.854Z,26.03
2018-06-15T07:44:59.479Z,25.98
2018-06-15T07:47:09.668Z,25.83
2018-06-15T07:49:18.460Z,25.98
2018-06-15T07:51:25.870Z,25.83
2018-06-15T07:53:31.658Z,25.47
2018-06-15T07:55:37.938Z,25.29
2018-06-15T07:57:43.317Z,25.21
2018-06-15T07:59:51.402Z,25.63
2018-06-15T08:01:57.346Z,25.25
2018-06-15T08:04:05.772Z,25.12
2018-06-15T08:06:14.658Z,25.76
2018-06-15T08:08:27.568Z,25.54
2018-06-15T08:10:34.302Z,25.75
2018-06-15T08:12:41.706Z,25.70
2018-06-15T08:14:47.483Z,25.67
2018-06-15T08:16:52.800Z,25.81
2018-06-15T08:18:58.325Z,26.13
2018-06-15T08:21:03.740Z,26.06
2018-06-15T08:23:13.912Z,26.27
2018-06-15T08:25:24.710Z,26.21
2018-06-15T08:27:31.738Z,26.18
2018-06-15T08:29:37.755Z,26.45
2018-06-15T08:31:45.394Z,26.60
2018-06-15T08:33:51.447Z,26.48
2018-06-15T08:35:57.776Z,26.56
2018-06-15T08:38:05.881Z,26.15
2018-06-15T08:40:14.859Z,26.06
2018-06-15T08:42:22.536Z,26.30
2018-06-15T08:44:28.383Z,26.39
2018-06-15T08:46:36.769Z,26.27
2018-06-15T08:48:42.203Z,26.28
2018-06-15T08:50:47.861Z,26.37
2018-06-15T08:52:53.127Z,26.39
2018-06-15T08:54:58.426Z,26.08
2018-06-15T08:57:04.163Z,25.96
2018-06-15T08:59:11.690Z,25.98
2018-06-15T09:01:19.068Z,26.40
2018-06-15T09:03:25.785Z,26.40
2018-06-15T09:05:31.246Z,26.57
2018-06-15T09:07:36.392Z,26.53
2018-06-15T09:09:43.396Z,26.68
2018-06-15T09:11:48.630Z,26.37
2018-06-15T09:13:54.705Z,26.29
2018-06-15T09:16:00.946Z,26.72
2018-06-15T09:18:09.123Z,26.71
2018-06-15T09:20:19.380Z,26.44
2018-06-15T09:22:27.461Z,26.32
2018-06-15T09:24:37.509Z,26.20
2018-06-15T09:26:42.813Z,26.58
2018-06-15T09:28:49.914Z,26.79
2018-06-15T09:30:55.331Z,26.46
2018-06-15T09:33:01.283Z,26.59
2018-06-15T09:35:08.950Z,26.55
2018-06-15T09:37:17.355Z,26.54
2018-06-15T09:39:24.297Z,26.61
2018-06-15T09:41:29.886Z,26.20
2018-06-15T09:43:36.782Z,26.25
2018-06-15T09:45:43.354Z,26.40
2018-06-15T09:47:49.163Z,26.56
2018-06-15T09:49:54.324Z,26.83
2018-06-15T09:51:59.682Z,26.85
2018-06-15T09:54:05.846Z,26.81
2018-06-15T09:56:15.336Z,26.92
2018-06-15T09:58:23.203Z,26.84
2018-06-15T10:00:33.436Z,26.88
2018-06-15T10:02:38.858Z,27.02
2018-06-15T10:04:44.135Z,26.67
2018-06-15T10:06:50.622Z,26.77
2018-06-15T10:08:56.588Z,26.82
2018-06-15T10:11:01.831Z,26.80
2018-06-15T10:13:10.298Z,26.90
2018-06-15T10:15:18.694Z,26.86
2018-06-15T10:17:24.407Z,26.68
2018-06-15T10:19:29.986Z,26.61
2018-06-15T10:21:35.219Z,26.68
2018-06-15T10:23:40.357Z,26.66
2018-06-15T10:25:46.054Z,27.15
2018-06-15T10:27:51.246Z,26.83
2018-06-15T10:29:56.691Z,26.98
2018-06-15T10:32:03.069Z,27.23
2018-06-15T10:34:09.692Z,27.01
2018-06-15T10:36:17.010Z,26.96
2018-06-15T10:38:24.667Z,26.79
2018-06-15T10:40:30.996Z,26.78
2018-06-15T10:42:36.845Z,26.57
2018-06-15T10:44:42.454Z,26.67
2018-06-15T10:46:47.700Z,26.63
2018-06-15T10:48:53.023Z,26.81
2018-06-15T10:50:58.850Z,26.64
2018-06-15T10:53:04.301Z,26.55
2018-06-15T10:55:12.757Z,26.49
2018-06-15T10:57:22.699Z,26.63
2018-06-15T10:59:29.521Z,26.86
2018-06-15T11:01:35.010Z,26.94
2018-06-15T11:03:42.153Z,27.19
2018-06-15T11:05:48.221Z,27.36
2018-06-15T11:07:53.644Z,27.31
